sensor_id;sensor_type;location;lat;lon;timestamp;temperature;humidity
44461;DHT22;30162;53.642;10.640;2022-09-03T00:00:24;19.80;64.50
44461;DHT22;30162;53.642;10.640;2022-09-03T00:03:06;19.90;64.60
44461;DHT22;30162;53.642;10.640;2022-09-03T00:05:37;20.10;64.20
44461;DHT22;30162;53.642;10.640;2022-09-03T00:10:33;20.10;64.30
44461;DHT22;30162;53.642;10.640;2022-09-03T00:13:01;20.20;64.10
44461;DHT22;30162;53.642;10.640;2022-09-03T00:15:28;20.10;64.20
44461;DHT22;30162;53.642;10.640;2022-09-03T00:18:05;20.00;64.40
44461;DHT22;30162;53.642;10.640;2022-09-03T00:20:44;20.00;64.30
44461;DHT22;30162;53.642;10.640;2022-09-03T00:23:15;20.00;64.20
44461;DHT22;30162;53.642;10.640;2022-09-03T00:28:10;20.20;64.10
44461;DHT22;30162;53.642;10.640;2022-09-03T00:30:37;20.20;64.00
44461;DHT22;30162;53.642;10.640;2022-09-03T00:33:13;20.20;63.80
44461;DHT22;30162;53.642;10.640;2022-09-03T00:35:48;20.20;63.80
44461;DHT22;30162;53.642;10.640;2022-09-03T00:38:14;20.10;64.10
44461;DHT22;30162;53.642;10.640;2022-09-03T00:40:59;20.00;63.90
44461;DHT22;30162;53.642;10.640;2022-09-03T00:43:38;20.00;63.90
44461;DHT22;30162;53.642;10.640;2022-09-03T00:49:26;19.80;64.10
44461;DHT22;30162;53.642;10.640;2022-09-03T00:56:26;19.70;64.60
44461;DHT22;30162;53.642;10.640;2022-09-03T00:59:11;19.70;64.40
44461;DHT22;30162;53.642;10.640;2022-09-03T01:01:55;19.50;64.60
44461;DHT22;30162;53.642;10.640;2022-09-03T01:07:05;19.60;64.60
44461;DHT22;30162;53.642;10.640;2022-09-03T01:12:18;19.60;64.50
44461;DHT22;30162;53.642;10.640;2022-09-03T01:17:23;19.50;64.70
44461;DHT22;30162;53.642;10.640;2022-09-03T01:20:02;19.50;64.60
44461;DHT22;30162;53.642;10.640;2022-09-03T01:25:24;19.10;65.50
44461;DHT22;30162;53.642;10.640;2022-09-03T01:30:41;19.40;64.90
44461;DHT22;30162;53.642;10.640;2022-09-03T01:33:25;19.30;65.50
44461;DHT22;30162;53.642;10.640;2022-09-03T01:35:55;19.20;65.30
44461;DHT22;30162;53.642;10.640;2022-09-03T01:48:18;19.60;64.50
44461;DHT22;30162;53.642;10.640;2022-09-03T01:50:50;19.40;64.60
44461;DHT22;30162;53.642;10.640;2022-09-03T01:56:18;19.70;64.20
44461;DHT22;30162;53.642;10.640;2022-09-03T01:58:58;19.80;63.80
44461;DHT22;30162;53.642;10.640;2022-09-03T02:01:32;19.80;63.80
44461;DHT22;30162;53.642;10.640;2022-09-03T02:03:58;20.00;63.40
44461;DHT22;30162;53.642;10.640;2022-09-03T02:06:24;20.00;63.40
44461;DHT22;30162;53.642;10.640;2022-09-03T02:08:50;19.90;63.50
44461;DHT22;30162;53.642;10.640;2022-09-03T02:11:16;19.90;63.40
44461;DHT22;30162;53.642;10.640;2022-09-03T02:13:42;19.70;63.40
44461;DHT22;30162;53.642;10.640;2022-09-03T02:16:11;19.70;63.60
44461;DHT22;30162;53.642;10.640;2022-09-03T02:18:48;19.60;63.90
44461;DHT22;30162;53.642;10.640;2022-09-03T02:21:15;19.60;63.60
44461;DHT22;30162;53.642;10.640;2022-09-03T02:23:42;19.60;63.80
44461;DHT22;30162;53.642;10.640;2022-09-03T02:26:08;19.70;63.80
44461;DHT22;30162;53.642;10.640;2022-09-03T02:28:34;19.60;63.60
44461;DHT22;30162;53.642;10.640;2022-09-03T02:31:00;19.70;63.50
44461;DHT22;30162;53.642;10.640;2022-09-03T02:33:25;19.60;63.50
44461;DHT22;30162;53.642;10.640;2022-09-03T02:35:51;19.50;63.60
44461;DHT22;30162;53.642;10.640;2022-09-03T02:38:24;19.70;63.40
44461;DHT22;30162;53.642;10.640;2022-09-03T02:40:50;19.80;62.80
44461;DHT22;30162;53.642;10.640;2022-09-03T02:45:54;19.80;62.70
44461;DHT22;30162;53.642;10.640;2022-09-03T02:48:22;19.80;62.60
44461;DHT22;30162;53.642;10.640;2022-09-03T02:50:47;19.70;62.70
44461;DHT22;30162;53.642;10.640;2022-09-03T02:53:13;19.80;62.70
44461;DHT22;30162;53.642;10.640;2022-09-03T02:55:38;19.60;62.70
44461;DHT22;30162;53.642;10.640;2022-09-03T02:58:04;19.70;62.90
44461;DHT22;30162;53.642;10.640;2022-09-03T03:00:33;19.80;62.60
44461;DHT22;30162;53.642;10.640;2022-09-03T03:03:03;19.70;62.50
44461;DHT22;30162;53.642;10.640;2022-09-03T03:05:34;19.60;62.50
44461;DHT22;30162;53.642;10.640;2022-09-03T03:08:03;19.60;62.80
44461;DHT22;30162;53.642;10.640;2022-09-03T03:10:29;19.60;62.90
44461;DHT22;30162;53.642;10.640;2022-09-03T03:12:55;19.60;62.90
44461;DHT22;30162;53.642;10.640;2022-09-03T03:15:20;19.60;62.90
44461;DHT22;30162;53.642;10.640;2022-09-03T03:17:46;19.50;62.70
44461;DHT22;30162;53.642;10.640;2022-09-03T03:20:11;19.20;63.30
44461;DHT22;30162;53.642;10.640;2022-09-03T03:22:37;19.40;63.90
44461;DHT22;30162;53.642;10.640;2022-09-03T03:25:02;19.50;63.10
44461;DHT22;30162;53.642;10.640;2022-09-03T03:27:29;19.50;62.90
44461;DHT22;30162;53.642;10.640;2022-09-03T03:29:55;19.20;63.50
44461;DHT22;30162;53.642;10.640;2022-09-03T03:32:22;19.30;63.30
44461;DHT22;30162;53.642;10.640;2022-09-03T03:34:47;19.30;63.20
44461;DHT22;30162;53.642;10.640;2022-09-03T03:37:13;19.30;63.10
44461;DHT22;30162;53.642;10.640;2022-09-03T03:39:38;19.10;63.40
44461;DHT22;30162;53.642;10.640;2022-09-03T03:42:04;19.10;63.40
44461;DHT22;30162;53.642;10.640;2022-09-03T03:44:29;19.10;63.50
44461;DHT22;30162;53.642;10.640;2022-09-03T03:46:54;19.30;63.00
44461;DHT22;30162;53.642;10.640;2022-09-03T03:49:20;19.00;63.20
44461;DHT22;30162;53.642;10.640;2022-09-03T03:51:45;19.10;63.50
44461;DHT22;30162;53.642;10.640;2022-09-03T03:54:11;19.10;63.00
44461;DHT22;30162;53.642;10.640;2022-09-03T03:56:36;19.10;63.40
44461;DHT22;30162;53.642;10.640;2022-09-03T03:59:02;19.10;63.20
44461;DHT22;30162;53.642;10.640;2022-09-03T04:01:28;19.20;63.10
44461;DHT22;30162;53.642;10.640;2022-09-03T04:03:54;19.20;63.30
44461;DHT22;30162;53.642;10.640;2022-09-03T04:06:20;19.10;63.30
44461;DHT22;30162;53.642;10.640;2022-09-03T04:08:46;19.20;63.30
44461;DHT22;30162;53.642;10.640;2022-09-03T04:11:13;19.10;63.30
44461;DHT22;30162;53.642;10.640;2022-09-03T04:13:39;18.90;63.30
44461;DHT22;30162;53.642;10.640;2022-09-03T04:16:15;18.80;63.70
44461;DHT22;30162;53.642;10.640;2022-09-03T04:18:42;18.80;64.10
44461;DHT22;30162;53.642;10.640;2022-09-03T04:21:11;18.70;64.10
44461;DHT22;30162;53.642;10.640;2022-09-03T04:23:38;18.70;63.90
44461;DHT22;30162;53.642;10.640;2022-09-03T04:26:04;18.70;64.00
44461;DHT22;30162;53.642;10.640;2022-09-03T04:28:30;18.70;64.10
44461;DHT22;30162;53.642;10.640;2022-09-03T04:31:03;18.50;64.20
44461;DHT22;30162;53.642;10.640;2022-09-03T04:33:29;18.60;64.10
44461;DHT22;30162;53.642;10.640;2022-09-03T04:36:07;18.60;63.90
44461;DHT22;30162;53.642;10.640;2022-09-03T04:38:34;18.50;64.10
44461;DHT22;30162;53.642;10.640;2022-09-03T04:41:00;18.60;64.10
44461;DHT22;30162;53.642;10.640;2022-09-03T04:43:26;18.60;64.20
44461;DHT22;30162;53.642;10.640;2022-09-03T04:45:54;18.40;64.30
44461;DHT22;30162;53.642;10.640;2022-09-03T04:48:20;18.60;64.30
44461;DHT22;30162;53.642;10.640;2022-09-03T04:50:45;18.70;64.10
44461;DHT22;30162;53.642;10.640;2022-09-03T04:53:11;18.60;63.90
44461;DHT22;30162;53.642;10.640;2022-09-03T04:55:36;18.70;63.80
44461;DHT22;30162;53.642;10.640;2022-09-03T04:58:02;18.80;63.80
44461;DHT22;30162;53.642;10.640;2022-09-03T05:00:28;18.70;63.50
44461;DHT22;30162;53.642;10.640;2022-09-03T05:02:53;18.80;63.30
44461;DHT22;30162;53.642;10.640;2022-09-03T05:05:19;18.70;63.40
44461;DHT22;30162;53.642;10.640;2022-09-03T05:07:44;18.60;63.70
44461;DHT22;30162;53.642;10.640;2022-09-03T05:10:10;18.40;64.00
44461;DHT22;30162;53.642;10.640;2022-09-03T05:12:45;18.40;64.30
44461;DHT22;30162;53.642;10.640;2022-09-03T05:15:10;18.40;64.30
44461;DHT22;30162;53.642;10.640;2022-09-03T05:17:36;18.40;64.30
44461;DHT22;30162;53.642;10.640;2022-09-03T05:20:03;18.50;64.30
44461;DHT22;30162;53.642;10.640;2022-09-03T05:22:28;18.40;64.30
44461;DHT22;30162;53.642;10.640;2022-09-03T05:24:54;18.50;64.20
44461;DHT22;30162;53.642;10.640;2022-09-03T05:27:20;18.70;64.00
44461;DHT22;30162;53.642;10.640;2022-09-03T05:29:45;18.80;63.70
44461;DHT22;30162;53.642;10.640;2022-09-03T05:32:11;18.50;64.20
44461;DHT22;30162;53.642;10.640;2022-09-03T05:34:37;18.80;63.80
44461;DHT22;30162;53.642;10.640;2022-09-03T05:37:03;18.90;63.70
44461;DHT22;30162;53.642;10.640;2022-09-03T05:39:28;19.00;63.60
44461;DHT22;30162;53.642;10.640;2022-09-03T05:41:53;19.20;63.30
44461;DHT22;30162;53.642;10.640;2022-09-03T05:44:19;19.30;63.00
44461;DHT22;30162;53.642;10.640;2022-09-03T05:46:47;19.30;62.70
44461;DHT22;30162;53.642;10.640;2022-09-03T05:49:14;19.20;62.90
44461;DHT22;30162;53.642;10.640;2022-09-03T05:51:39;19.10;62.80
44461;DHT22;30162;53.642;10.640;2022-09-03T05:54:05;19.10;63.20
44461;DHT22;30162;53.642;10.640;2022-09-03T05:56:32;19.00;63.70
44461;DHT22;30162;53.642;10.640;2022-09-03T05:59:00;19.20;63.60
44461;DHT22;30162;53.642;10.640;2022-09-03T06:01:28;19.40;63.20
44461;DHT22;30162;53.642;10.640;2022-09-03T06:03:54;19.50;62.50
44461;DHT22;30162;53.642;10.640;2022-09-03T06:06:21;19.60;62.50
44461;DHT22;30162;53.642;10.640;2022-09-03T06:08:50;19.30;62.80
44461;DHT22;30162;53.642;10.640;2022-09-03T06:11:15;19.50;63.00
44461;DHT22;30162;53.642;10.640;2022-09-03T06:13:41;19.80;62.40
44461;DHT22;30162;53.642;10.640;2022-09-03T06:16:07;20.00;61.80
44461;DHT22;30162;53.642;10.640;2022-09-03T06:18:33;20.10;61.10
44461;DHT22;30162;53.642;10.640;2022-09-03T06:21:02;20.10;61.40
44461;DHT22;30162;53.642;10.640;2022-09-03T06:23:28;19.90;61.70
44461;DHT22;30162;53.642;10.640;2022-09-03T06:28:32;19.60;61.80
44461;DHT22;30162;53.642;10.640;2022-09-03T06:31:01;19.70;61.80
44461;DHT22;30162;53.642;10.640;2022-09-03T06:33:28;20.00;62.10
44461;DHT22;30162;53.642;10.640;2022-09-03T06:35:55;20.50;61.00
44461;DHT22;30162;53.642;10.640;2022-09-03T06:38:22;21.00;59.90
44461;DHT22;30162;53.642;10.640;2022-09-03T06:40:52;21.40;58.60
44461;DHT22;30162;53.642;10.640;2022-09-03T06:43:18;21.80;58.60
44461;DHT22;30162;53.642;10.640;2022-09-03T06:45:51;22.00;58.00
44461;DHT22;30162;53.642;10.640;2022-09-03T06:48:16;21.60;57.80
44461;DHT22;30162;53.642;10.640;2022-09-03T06:50:42;21.70;58.20
44461;DHT22;30162;53.642;10.640;2022-09-03T06:53:07;22.30;57.70
44461;DHT22;30162;53.642;10.640;2022-09-03T06:55:33;22.30;57.60
44461;DHT22;30162;53.642;10.640;2022-09-03T06:57:59;22.60;57.70
44461;DHT22;30162;53.642;10.640;2022-09-03T07:00:24;22.50;57.10
44461;DHT22;30162;53.642;10.640;2022-09-03T07:02:55;22.50;57.60
44461;DHT22;30162;53.642;10.640;2022-09-03T07:05:23;22.40;57.00
44461;DHT22;30162;53.642;10.640;2022-09-03T07:07:50;21.90;58.30
44461;DHT22;30162;53.642;10.640;2022-09-03T07:10:16;22.40;56.90
44461;DHT22;30162;53.642;10.640;2022-09-03T07:12:45;22.40;58.20
44461;DHT22;30162;53.642;10.640;2022-09-03T07:15:10;22.70;57.80
44461;DHT22;30162;53.642;10.640;2022-09-03T07:17:36;22.30;56.90
44461;DHT22;30162;53.642;10.640;2022-09-03T07:20:02;22.60;56.80
44461;DHT22;30162;53.642;10.640;2022-09-03T07:22:27;22.50;57.70
44461;DHT22;30162;53.642;10.640;2022-09-03T07:24:53;23.10;56.10
44461;DHT22;30162;53.642;10.640;2022-09-03T07:27:18;23.40;55.90
44461;DHT22;30162;53.642;10.640;2022-09-03T07:29:43;22.80;56.10
44461;DHT22;30162;53.642;10.640;2022-09-03T07:32:09;22.70;56.50
44461;DHT22;30162;53.642;10.640;2022-09-03T07:34:34;23.10;56.30
44461;DHT22;30162;53.642;10.640;2022-09-03T07:37:00;23.40;56.20
44461;DHT22;30162;53.642;10.640;2022-09-03T07:39:25;23.70;56.00
44461;DHT22;30162;53.642;10.640;2022-09-03T07:41:51;24.10;55.30
44461;DHT22;30162;53.642;10.640;2022-09-03T07:44:18;24.40;55.50
44461;DHT22;30162;53.642;10.640;2022-09-03T07:46:43;24.50;54.40
44461;DHT22;30162;53.642;10.640;2022-09-03T07:49:10;24.80;53.90
44461;DHT22;30162;53.642;10.640;2022-09-03T07:51:36;24.70;53.90
44461;DHT22;30162;53.642;10.640;2022-09-03T07:54:03;24.10;53.50
44461;DHT22;30162;53.642;10.640;2022-09-03T07:56:31;23.70;55.20
44461;DHT22;30162;53.642;10.640;2022-09-03T07:58:56;22.90;56.20
44461;DHT22;30162;53.642;10.640;2022-09-03T08:01:23;22.80;57.20
44461;DHT22;30162;53.642;10.640;2022-09-03T08:03:50;22.90;56.80
44461;DHT22;30162;53.642;10.640;2022-09-03T08:06:16;23.40;56.20
44461;DHT22;30162;53.642;10.640;2022-09-03T08:08:42;23.30;56.70
44461;DHT22;30162;53.642;10.640;2022-09-03T08:11:11;23.60;56.90
44461;DHT22;30162;53.642;10.640;2022-09-03T08:13:37;24.20;56.30
44461;DHT22;30162;53.642;10.640;2022-09-03T08:16:03;24.50;54.90
44461;DHT22;30162;53.642;10.640;2022-09-03T08:18:30;24.60;55.00
44461;DHT22;30162;53.642;10.640;2022-09-03T08:20:59;24.80;54.20
44461;DHT22;30162;53.642;10.640;2022-09-03T08:23:25;25.00;54.70
44461;DHT22;30162;53.642;10.640;2022-09-03T08:25:57;25.00;53.40
44461;DHT22;30162;53.642;10.640;2022-09-03T08:28:22;25.30;54.00
44461;DHT22;30162;53.642;10.640;2022-09-03T08:30:48;25.20;54.60
44461;DHT22;30162;53.642;10.640;2022-09-03T08:33:14;24.70;54.30
44461;DHT22;30162;53.642;10.640;2022-09-03T08:35:39;24.60;55.10
44461;DHT22;30162;53.642;10.640;2022-09-03T08:38:04;24.70;54.90
44461;DHT22;30162;53.642;10.640;2022-09-03T08:40:32;24.30;55.80
44461;DHT22;30162;53.642;10.640;2022-09-03T08:43:08;24.40;55.10
44461;DHT22;30162;53.642;10.640;2022-09-03T08:45:37;24.90;54.80
44461;DHT22;30162;53.642;10.640;2022-09-03T08:48:08;24.70;53.60
44461;DHT22;30162;53.642;10.640;2022-09-03T08:50:42;24.70;54.00
44461;DHT22;30162;53.642;10.640;2022-09-03T08:53:14;25.10;53.10
44461;DHT22;30162;53.642;10.640;2022-09-03T08:58:16;25.40;53.20
44461;DHT22;30162;53.642;10.640;2022-09-03T09:11:45;25.60;52.50
44461;DHT22;30162;53.642;10.640;2022-09-03T09:16:20;25.90;51.90
44461;DHT22;30162;53.642;10.640;2022-09-03T09:21:17;26.20;52.10
44461;DHT22;30162;53.642;10.640;2022-09-03T09:23:48;26.70;51.40
44461;DHT22;30162;53.642;10.640;2022-09-03T09:26:17;26.80;50.50
44461;DHT22;30162;53.642;10.640;2022-09-03T09:28:46;26.40;51.00
44461;DHT22;30162;53.642;10.640;2022-09-03T09:31:15;26.40;52.10
44461;DHT22;30162;53.642;10.640;2022-09-03T09:33:42;27.00;51.30
44461;DHT22;30162;53.642;10.640;2022-09-03T09:36:09;27.00;51.00
44461;DHT22;30162;53.642;10.640;2022-09-03T09:38:37;27.00;50.60
44461;DHT22;30162;53.642;10.640;2022-09-03T09:41:10;26.80;49.00
44461;DHT22;30162;53.642;10.640;2022-09-03T09:43:36;26.90;50.10
44461;DHT22;30162;53.642;10.640;2022-09-03T09:46:22;27.70;49.30
44461;DHT22;30162;53.642;10.640;2022-09-03T09:48:57;27.30;48.40
44461;DHT22;30162;53.642;10.640;2022-09-03T09:51:23;27.20;49.20
44461;DHT22;30162;53.642;10.640;2022-09-03T09:56:34;26.00;49.20
44461;DHT22;30162;53.642;10.640;2022-09-03T09:59:03;25.80;49.20
44461;DHT22;30162;53.642;10.640;2022-09-03T10:01:28;26.10;49.70
44461;DHT22;30162;53.642;10.640;2022-09-03T10:03:57;26.70;48.60
44461;DHT22;30162;53.642;10.640;2022-09-03T10:06:23;27.10;47.80
44461;DHT22;30162;53.642;10.640;2022-09-03T10:09:09;27.40;47.40
44461;DHT22;30162;53.642;10.640;2022-09-03T10:11:35;27.70;48.00
44461;DHT22;30162;53.642;10.640;2022-09-03T10:14:05;27.30;47.10
44461;DHT22;30162;53.642;10.640;2022-09-03T10:16:34;27.10;46.80
44461;DHT22;30162;53.642;10.640;2022-09-03T10:19:04;27.50;47.10
44461;DHT22;30162;53.642;10.640;2022-09-03T10:21:44;27.00;46.90
44461;DHT22;30162;53.642;10.640;2022-09-03T10:26:39;27.00;46.70
44461;DHT22;30162;53.642;10.640;2022-09-03T10:29:05;27.00;47.10
44461;DHT22;30162;53.642;10.640;2022-09-03T10:36:35;26.70;47.90
44461;DHT22;30162;53.642;10.640;2022-09-03T10:44:24;27.20;46.10
44461;DHT22;30162;53.642;10.640;2022-09-03T10:47:01;26.40;46.30
44461;DHT22;30162;53.642;10.640;2022-09-03T10:52:09;26.70;46.90
44461;DHT22;30162;53.642;10.640;2022-09-03T10:59:56;27.20;46.80
44461;DHT22;30162;53.642;10.640;2022-09-03T11:07:58;26.40;46.40
44461;DHT22;30162;53.642;10.640;2022-09-03T11:10:29;26.60;46.50
44461;DHT22;30162;53.642;10.640;2022-09-03T11:15:30;25.50;46.60
44461;DHT22;30162;53.642;10.640;2022-09-03T11:17:58;26.20;46.20
44461;DHT22;30162;53.642;10.640;2022-09-03T11:20:25;26.20;45.50
44461;DHT22;30162;53.642;10.640;2022-09-03T11:22:55;26.00;46.60
44461;DHT22;30162;53.642;10.640;2022-09-03T11:25:23;26.30;46.70
44461;DHT22;30162;53.642;10.640;2022-09-03T11:27:55;26.20;46.00
44461;DHT22;30162;53.642;10.640;2022-09-03T11:30:34;25.20;45.00
44461;DHT22;30162;53.642;10.640;2022-09-03T11:33:08;25.00;47.00
44461;DHT22;30162;53.642;10.640;2022-09-03T11:38:00;25.50;47.00
44461;DHT22;30162;53.642;10.640;2022-09-03T11:48:41;25.40;46.10
44461;DHT22;30162;53.642;10.640;2022-09-03T11:54:02;25.20;45.70
44461;DHT22;30162;53.642;10.640;2022-09-03T11:56:29;25.40;45.80
44461;DHT22;30162;53.642;10.640;2022-09-03T11:58:59;25.80;45.50
44461;DHT22;30162;53.642;10.640;2022-09-03T12:01:25;26.00;44.90
44461;DHT22;30162;53.642;10.640;2022-09-03T12:03:53;26.00;45.00
44461;DHT22;30162;53.642;10.640;2022-09-03T12:06:41;25.90;44.10
44461;DHT22;30162;53.642;10.640;2022-09-03T12:09:11;25.10;44.70
44461;DHT22;30162;53.642;10.640;2022-09-03T12:22:34;26.30;44.00
44461;DHT22;30162;53.642;10.640;2022-09-03T12:25:06;26.70;43.20
44461;DHT22;30162;53.642;10.640;2022-09-03T12:27:32;26.70;43.80
44461;DHT22;30162;53.642;10.640;2022-09-03T12:29:58;25.90;43.70
44461;DHT22;30162;53.642;10.640;2022-09-03T12:32:28;26.40;44.80
44461;DHT22;30162;53.642;10.640;2022-09-03T12:34:55;26.40;44.60
44461;DHT22;30162;53.642;10.640;2022-09-03T12:37:21;26.70;43.70
44461;DHT22;30162;53.642;10.640;2022-09-03T12:39:54;27.10;43.40
44461;DHT22;30162;53.642;10.640;2022-09-03T12:42:22;27.70;43.50
44461;DHT22;30162;53.642;10.640;2022-09-03T12:44:48;27.60;43.00
44461;DHT22;30162;53.642;10.640;2022-09-03T12:47:15;26.90;42.70
44461;DHT22;30162;53.642;10.640;2022-09-03T12:49:42;26.60;43.70
44461;DHT22;30162;53.642;10.640;2022-09-03T12:54:35;26.30;43.00
44461;DHT22;30162;53.642;10.640;2022-09-03T12:57:03;26.00;43.70
44461;DHT22;30162;53.642;10.640;2022-09-03T12:59:31;26.20;44.20
44461;DHT22;30162;53.642;10.640;2022-09-03T13:01:59;26.70;43.80
44461;DHT22;30162;53.642;10.640;2022-09-03T13:04:30;27.00;43.90
44461;DHT22;30162;53.642;10.640;2022-09-03T13:07:13;27.30;43.30
44461;DHT22;30162;53.642;10.640;2022-09-03T13:09:44;27.70;42.50
44461;DHT22;30162;53.642;10.640;2022-09-03T13:12:20;28.00;42.80
44461;DHT22;30162;53.642;10.640;2022-09-03T13:14:46;27.90;42.40
44461;DHT22;30162;53.642;10.640;2022-09-03T13:17:21;27.40;43.00
44461;DHT22;30162;53.642;10.640;2022-09-03T13:19:58;26.90;43.70
44461;DHT22;30162;53.642;10.640;2022-09-03T13:27:58;26.40;44.10
44461;DHT22;30162;53.642;10.640;2022-09-03T13:30:37;26.70;43.40
44461;DHT22;30162;53.642;10.640;2022-09-03T13:33:07;26.30;43.30
44461;DHT22;30162;53.642;10.640;2022-09-03T13:35:52;26.10;43.50
44461;DHT22;30162;53.642;10.640;2022-09-03T13:40:49;26.60;43.20
44461;DHT22;30162;53.642;10.640;2022-09-03T13:43:29;26.80;43.00
44461;DHT22;30162;53.642;10.640;2022-09-03T13:45:59;26.90;43.40
44461;DHT22;30162;53.642;10.640;2022-09-03T13:48:30;26.80;43.20
44461;DHT22;30162;53.642;10.640;2022-09-03T13:56:56;26.60;42.90
44461;DHT22;30162;53.642;10.640;2022-09-03T13:59:32;26.60;43.30
44461;DHT22;30162;53.642;10.640;2022-09-03T14:04:41;26.00;44.10
44461;DHT22;30162;53.642;10.640;2022-09-03T14:07:10;26.00;44.40
44461;DHT22;30162;53.642;10.640;2022-09-03T14:09:46;26.20;45.20
44461;DHT22;30162;53.642;10.640;2022-09-03T14:12:14;26.60;43.70
44461;DHT22;30162;53.642;10.640;2022-09-03T14:14:48;26.10;43.20
44461;DHT22;30162;53.642;10.640;2022-09-03T14:19:55;26.00;43.50
44461;DHT22;30162;53.642;10.640;2022-09-03T14:22:24;25.70;44.60
44461;DHT22;30162;53.642;10.640;2022-09-03T14:24:54;25.90;45.00
44461;DHT22;30162;53.642;10.640;2022-09-03T14:27:26;25.70;43.50
44461;DHT22;30162;53.642;10.640;2022-09-03T14:29:53;25.40;44.50
44461;DHT22;30162;53.642;10.640;2022-09-03T14:40:24;25.60;44.20
44461;DHT22;30162;53.642;10.640;2022-09-03T14:53:11;25.10;45.90
44461;DHT22;30162;53.642;10.640;2022-09-03T14:58:16;25.00;47.70
44461;DHT22;30162;53.642;10.640;2022-09-03T15:05:43;24.70;47.60
44461;DHT22;30162;53.642;10.640;2022-09-03T15:10:57;24.50;47.90
44461;DHT22;30162;53.642;10.640;2022-09-03T15:13:23;24.50;46.80
44461;DHT22;30162;53.642;10.640;2022-09-03T15:18:48;25.20;47.10
44461;DHT22;30162;53.642;10.640;2022-09-03T15:21:24;25.80;47.00
44461;DHT22;30162;53.642;10.640;2022-09-03T15:24:04;25.90;45.70
44461;DHT22;30162;53.642;10.640;2022-09-03T15:26:35;25.60;46.00
44461;DHT22;30162;53.642;10.640;2022-09-03T15:29:17;25.30;46.10
44461;DHT22;30162;53.642;10.640;2022-09-03T15:31:56;25.10;46.50
44461;DHT22;30162;53.642;10.640;2022-09-03T15:36:50;24.70;47.00
44461;DHT22;30162;53.642;10.640;2022-09-03T15:39:21;24.50;47.50
44461;DHT22;30162;53.642;10.640;2022-09-03T15:41:49;24.70;47.70
44461;DHT22;30162;53.642;10.640;2022-09-03T15:44:20;24.80;47.20
44461;DHT22;30162;53.642;10.640;2022-09-03T15:57:20;25.10;47.10
44461;DHT22;30162;53.642;10.640;2022-09-03T15:59:54;24.90;47.60
44461;DHT22;30162;53.642;10.640;2022-09-03T16:02:29;25.10;47.10
44461;DHT22;30162;53.642;10.640;2022-09-03T16:17:51;25.00;47.40
44461;DHT22;30162;53.642;10.640;2022-09-03T16:23:10;24.70;47.30
44461;DHT22;30162;53.642;10.640;2022-09-03T16:25:46;24.80;47.60
44461;DHT22;30162;53.642;10.640;2022-09-03T16:28:17;24.70;47.40
44461;DHT22;30162;53.642;10.640;2022-09-03T16:33:17;24.40;47.80
44461;DHT22;30162;53.642;10.640;2022-09-03T16:35:54;24.60;47.90
44461;DHT22;30162;53.642;10.640;2022-09-03T16:38:49;24.60;47.80
44461;DHT22;30162;53.642;10.640;2022-09-03T16:46:52;24.20;48.40
44461;DHT22;30162;53.642;10.640;2022-09-03T16:52:06;23.90;47.70
44461;DHT22;30162;53.642;10.640;2022-09-03T16:59:34;24.50;47.50
44461;DHT22;30162;53.642;10.640;2022-09-03T17:02:05;24.40;47.10
44461;DHT22;30162;53.642;10.640;2022-09-03T17:04:48;24.30;47.40
44461;DHT22;30162;53.642;10.640;2022-09-03T17:07:27;24.10;47.50
44461;DHT22;30162;53.642;10.640;2022-09-03T17:14:53;23.80;48.40
44461;DHT22;30162;53.642;10.640;2022-09-03T17:17:28;24.10;48.30
44461;DHT22;30162;53.642;10.640;2022-09-03T17:20:14;24.30;47.90
44461;DHT22;30162;53.642;10.640;2022-09-03T17:25:25;24.30;47.70
44461;DHT22;30162;53.642;10.640;2022-09-03T17:30:48;24.10;47.90
44461;DHT22;30162;53.642;10.640;2022-09-03T17:36:14;23.80;48.60
44461;DHT22;30162;53.642;10.640;2022-09-03T17:41:39;23.90;48.70
44461;DHT22;30162;53.642;10.640;2022-09-03T17:48:57;23.60;49.00
44461;DHT22;30162;53.642;10.640;2022-09-03T17:54:14;23.60;49.10
44461;DHT22;30162;53.642;10.640;2022-09-03T18:02:02;23.20;49.60
44461;DHT22;30162;53.642;10.640;2022-09-03T18:04:30;23.20;49.90
44461;DHT22;30162;53.642;10.640;2022-09-03T18:07:03;23.20;50.40
44461;DHT22;30162;53.642;10.640;2022-09-03T18:09:40;23.20;50.70
44461;DHT22;30162;53.642;10.640;2022-09-03T18:12:11;23.10;50.80
44461;DHT22;30162;53.642;10.640;2022-09-03T18:14:51;23.00;51.20
44461;DHT22;30162;53.642;10.640;2022-09-03T18:17:33;22.90;51.30
44461;DHT22;30162;53.642;10.640;2022-09-03T18:20:05;22.80;51.50
44461;DHT22;30162;53.642;10.640;2022-09-03T18:22:59;22.80;51.80
44461;DHT22;30162;53.642;10.640;2022-09-03T18:25:45;22.70;52.20
44461;DHT22;30162;53.642;10.640;2022-09-03T18:28:38;22.50;52.40
44461;DHT22;30162;53.642;10.640;2022-09-03T18:31:23;22.50;52.60
44461;DHT22;30162;53.642;10.640;2022-09-03T18:34:08;22.40;52.70
44461;DHT22;30162;53.642;10.640;2022-09-03T18:36:53;22.20;53.00
44461;DHT22;30162;53.642;10.640;2022-09-03T18:39:39;22.10;53.30
44461;DHT22;30162;53.642;10.640;2022-09-03T18:48:12;21.70;53.90
44461;DHT22;30162;53.642;10.640;2022-09-03T18:56:50;21.80;54.00
44461;DHT22;30162;53.642;10.640;2022-09-03T19:05:31;21.60;54.10
44461;DHT22;30162;53.642;10.640;2022-09-03T19:08:24;21.60;54.20
44461;DHT22;30162;53.642;10.640;2022-09-03T19:14:14;21.50;54.30
44461;DHT22;30162;53.642;10.640;2022-09-03T19:17:09;21.50;54.60
44461;DHT22;30162;53.642;10.640;2022-09-03T19:22:43;21.20;55.10
44461;DHT22;30162;53.642;10.640;2022-09-03T19:25:28;21.10;55.10
44461;DHT22;30162;53.642;10.640;2022-09-03T19:28:20;21.00;55.30
44461;DHT22;30162;53.642;10.640;2022-09-03T19:31:24;21.00;55.40
44461;DHT22;30162;53.642;10.640;2022-09-03T19:37:19;20.90;55.60
44461;DHT22;30162;53.642;10.640;2022-09-03T19:51:48;20.40;56.60
44461;DHT22;30162;53.642;10.640;2022-09-03T19:54:36;20.60;56.70
44461;DHT22;30162;53.642;10.640;2022-09-03T19:57:21;20.50;57.00
44461;DHT22;30162;53.642;10.640;2022-09-03T20:00:05;20.50;57.10
44461;DHT22;30162;53.642;10.640;2022-09-03T20:02:50;20.60;57.20
44461;DHT22;30162;53.642;10.640;2022-09-03T20:05:34;20.60;57.10
44461;DHT22;30162;53.642;10.640;2022-09-03T20:08:19;20.50;57.40
44461;DHT22;30162;53.642;10.640;2022-09-03T20:11:04;20.40;58.00
44461;DHT22;30162;53.642;10.640;2022-09-03T20:13:30;20.40;58.40
44461;DHT22;30162;53.642;10.640;2022-09-03T20:19:03;20.50;59.40
44461;DHT22;30162;53.642;10.640;2022-09-03T20:21:41;20.50;59.40